RYR5ZC LIPE-LFOB
Flight info
| Callsign | RYR5ZC |
|---|---|
| Flight time | 1h 39m |
| Altitude | 18000 |
| Route | LUPOS L995 MISPO/N0438F340 DCT CERVI/N0442F360 DCT MOLUS DCT UNKIR DCT GIVRI DCT TINIL |
| Aircraft | B738/M-SDE2E3FGHIRWXY/LB1 |
Departure
| Time | 2026-04-28 14:06 |
|---|---|
| Airport | Bologna Guglielmo Marconi Airport (LIPE) |
Arrival
| Time | 2026-04-28 15:45 |
|---|---|
| Airport | Beauvais-Tillé airport (LFOB) |
| Time | Latitude | Longitude | Altitude | Speed | Heading |
|---|---|---|---|---|---|
| 2026-04-28 13:53 | 44.53208 | 11.28940 | 123 ft | 0 kts | 206° |
| 2026-04-28 13:59 | 44.53211 | 11.28942 | 126 ft | 3 kts | 205° |
| 2026-04-28 13:59 | 44.53228 | 11.28954 | 120 ft | 3 kts | 206° |
| 2026-04-28 13:59 | 44.53246 | 11.28966 | 144 ft | 2 kts | 201° |
| 2026-04-28 13:59 | 44.53254 | 11.28969 | 111 ft | 1 kts | 158° |
| 2026-04-28 14:00 | 44.53261 | 11.28963 | 122 ft | 1 kts | 127° |
| 2026-04-28 14:00 | 44.53266 | 11.28953 | 121 ft | 1 kts | 118° |
| 2026-04-28 14:00 | 44.53267 | 11.28949 | 122 ft | 0 kts | 117° |
| 2026-04-28 14:01 | 44.53267 | 11.28950 | 122 ft | 1 kts | 117° |
| 2026-04-28 14:01 | 44.53260 | 11.28971 | 125 ft | 4 kts | 114° |
| 2026-04-28 14:01 | 44.53261 | 11.29013 | 126 ft | 5 kts | 59° |
| 2026-04-28 14:01 | 44.53290 | 11.29016 | 126 ft | 5 kts | 324° |
| 2026-04-28 14:02 | 44.53307 | 11.28974 | 123 ft | 6 kts | 295° |
| 2026-04-28 14:02 | 44.53330 | 11.28909 | 124 ft | 10 kts | 296° |
| 2026-04-28 14:02 | 44.53369 | 11.28794 | 123 ft | 17 kts | 296° |
| 2026-04-28 14:02 | 44.53432 | 11.28622 | 123 ft | 23 kts | 297° |
| 2026-04-28 14:03 | 44.53512 | 11.28404 | 121 ft | 27 kts | 297° |
| 2026-04-28 14:03 | 44.53594 | 11.28177 | 123 ft | 25 kts | 297° |
| 2026-04-28 14:03 | 44.53672 | 11.27962 | 123 ft | 24 kts | 296° |
| 2026-04-28 14:03 | 44.53745 | 11.27761 | 124 ft | 23 kts | 297° |
| 2026-04-28 14:04 | 44.53801 | 11.27610 | 122 ft | 13 kts | 307° |
| 2026-04-28 14:04 | 44.53883 | 11.27571 | 121 ft | 13 kts | 4° |
| 2026-04-28 14:04 | 44.53949 | 11.27641 | 124 ft | 12 kts | 63° |
| 2026-04-28 14:04 | 44.53945 | 11.27755 | 122 ft | 12 kts | 114° |
| 2026-04-28 14:05 | 44.53885 | 11.27926 | 124 ft | 43 kts | 117° |
| 2026-04-28 14:05 | 44.53646 | 11.28598 | 125 ft | 109 kts | 117° |
| 2026-04-28 14:05 | 44.53214 | 11.29794 | 145 ft | 162 kts | 115° |
| 2026-04-28 14:05 | 44.52696 | 11.31195 | 695 ft | 164 kts | 114° |
| 2026-04-28 14:06 | 44.52633 | 11.32784 | 1164 ft | 172 kts | 57° |
| 2026-04-28 14:06 | 44.53604 | 11.33707 | 1822 ft | 175 kts | 22° |
| 2026-04-28 14:06 | 44.54705 | 11.34364 | 2620 ft | 172 kts | 25° |
| 2026-04-28 14:06 | 44.55802 | 11.35062 | 3207 ft | 173 kts | 27° |
| 2026-04-28 14:07 | 44.56881 | 11.35821 | 3793 ft | 175 kts | 28° |
| 2026-04-28 14:07 | 44.57976 | 11.36626 | 4285 ft | 185 kts | 30° |
| 2026-04-28 14:07 | 44.59170 | 11.37535 | 4613 ft | 205 kts | 30° |
| 2026-04-28 14:07 | 44.60464 | 11.38540 | 4944 ft | 218 kts | 31° |
| 2026-04-28 14:08 | 44.61806 | 11.39592 | 5244 ft | 221 kts | 30° |
| 2026-04-28 14:08 | 44.63167 | 11.40672 | 5682 ft | 228 kts | 28° |
| 2026-04-28 14:08 | 44.64546 | 11.41770 | 6244 ft | 230 kts | 30° |
| 2026-04-28 14:08 | 44.65405 | 11.42664 | 6451 ft | 240 kts | 49° |
| 2026-04-28 14:09 | 44.66097 | 11.45689 | 6767 ft | 261 kts | 98° |
| 2026-04-28 14:09 | 44.65475 | 11.48049 | 7401 ft | 259 kts | 129° |
| 2026-04-28 14:09 | 44.64114 | 11.49634 | 8048 ft | 256 kts | 160° |
| 2026-04-28 14:09 | 44.62370 | 11.49944 | 8654 ft | 255 kts | 193° |
| 2026-04-28 14:10 | 44.60709 | 11.49104 | 9328 ft | 255 kts | 205° |
| 2026-04-28 14:10 | 44.59101 | 11.48019 | 9983 ft | 257 kts | 207° |
| 2026-04-28 14:10 | 44.57471 | 11.46921 | 10561 ft | 262 kts | 206° |
| 2026-04-28 14:10 | 44.56378 | 11.46186 | 10994 ft | 263 kts | 209° |
| 2026-04-28 14:11 | 44.54991 | 11.44545 | 11579 ft | 264 kts | 237° |
| 2026-04-28 14:11 | 44.54248 | 11.42144 | 11929 ft | 279 kts | 260° |
| 2026-04-28 14:11 | 44.54064 | 11.39329 | 12128 ft | 300 kts | 266° |
| 2026-04-28 14:11 | 44.53918 | 11.35274 | 12335 ft | 328 kts | 267° |
| 2026-04-28 14:12 | 44.53841 | 11.33068 | 12506 ft | 340 kts | 266° |
| 2026-04-28 14:12 | 44.53718 | 11.29717 | 12978 ft | 349 kts | 266° |
| 2026-04-28 14:12 | 44.53583 | 11.26299 | 13629 ft | 353 kts | 266° |
| 2026-04-28 14:12 | 44.53441 | 11.22909 | 14473 ft | 354 kts | 266° |
| 2026-04-28 14:13 | 44.53292 | 11.19441 | 15129 ft | 357 kts | 266° |
| 2026-04-28 14:13 | 44.53141 | 11.15970 | 15826 ft | 358 kts | 266° |
| 2026-04-28 14:13 | 44.52988 | 11.12482 | 16512 ft | 360 kts | 266° |
| 2026-04-28 14:13 | 44.52832 | 11.08973 | 17194 ft | 361 kts | 266° |
| 2026-04-28 14:14 | 44.52675 | 11.05444 | 17860 ft | 364 kts | 266° |
| 2026-04-28 14:14 | 44.52517 | 11.01897 | 18521 ft | 366 kts | 266° |
| 2026-04-28 14:14 | 44.52362 | 10.98454 | 19039 ft | 369 kts | 266° |
| 2026-04-28 14:14 | 44.52200 | 10.94855 | 19577 ft | 371 kts | 266° |
| 2026-04-28 14:15 | 44.52035 | 10.91226 | 20119 ft | 374 kts | 266° |
| 2026-04-28 14:15 | 44.51867 | 10.87574 | 20646 ft | 376 kts | 266° |
| 2026-04-28 14:15 | 44.51699 | 10.83903 | 21159 ft | 379 kts | 266° |
| 2026-04-28 14:15 | 44.51530 | 10.80205 | 21668 ft | 382 kts | 266° |
| 2026-04-28 14:16 | 44.51361 | 10.76525 | 22171 ft | 384 kts | 266° |
| 2026-04-28 14:16 | 44.51189 | 10.72779 | 22644 ft | 387 kts | 266° |
| 2026-04-28 14:16 | 44.51014 | 10.68989 | 23122 ft | 390 kts | 266° |
| 2026-04-28 14:16 | 44.50842 | 10.65193 | 23623 ft | 392 kts | 268° |
| 2026-04-28 14:17 | 44.51167 | 10.61391 | 23986 ft | 397 kts | 287° |
| 2026-04-28 14:17 | 44.52349 | 10.57875 | 24398 ft | 401 kts | 301° |
| 2026-04-28 14:17 | 44.54144 | 10.54846 | 24730 ft | 409 kts | 316° |
| 2026-04-28 14:17 | 44.56491 | 10.52535 | 25108 ft | 415 kts | 325° |
| 2026-04-28 14:18 | 44.58957 | 10.50419 | 25506 ft | 416 kts | 325° |
| 2026-04-28 14:18 | 44.61426 | 10.48272 | 25878 ft | 418 kts | 325° |
| 2026-04-28 14:18 | 44.63859 | 10.46101 | 26229 ft | 420 kts | 324° |
| 2026-04-28 14:18 | 44.66313 | 10.43851 | 26593 ft | 422 kts | 324° |
| 2026-04-28 14:19 | 44.68779 | 10.41576 | 26944 ft | 424 kts | 324° |
| 2026-04-28 14:19 | 44.71247 | 10.39302 | 27294 ft | 426 kts | 324° |
| 2026-04-28 14:19 | 44.73737 | 10.37020 | 27672 ft | 427 kts | 324° |
| 2026-04-28 14:19 | 44.76239 | 10.34741 | 28008 ft | 428 kts | 324° |
| 2026-04-28 14:20 | 44.78714 | 10.32486 | 28323 ft | 430 kts | 324° |
| 2026-04-28 14:20 | 44.81237 | 10.30183 | 28546 ft | 433 kts | 324° |
| 2026-04-28 14:20 | 44.83739 | 10.27800 | 28847 ft | 434 kts | 322° |
| 2026-04-28 14:20 | 44.86174 | 10.25280 | 29150 ft | 435 kts | 320° |
| 2026-04-28 14:21 | 44.88594 | 10.22696 | 29482 ft | 436 kts | 320° |
| 2026-04-28 14:21 | 44.91008 | 10.20114 | 29928 ft | 434 kts | 320° |
| 2026-04-28 14:21 | 44.93420 | 10.17555 | 30392 ft | 432 kts | 320° |
| 2026-04-28 14:21 | 44.95818 | 10.15028 | 30820 ft | 429 kts | 320° |
| 2026-04-28 14:22 | 44.98207 | 10.12517 | 31201 ft | 427 kts | 320° |
| 2026-04-28 14:22 | 45.00529 | 10.09941 | 31571 ft | 424 kts | 314° |
| 2026-04-28 14:22 | 45.02547 | 10.06940 | 31925 ft | 419 kts | 307° |
| 2026-04-28 14:22 | 45.04215 | 10.03655 | 32304 ft | 414 kts | 298° |
| 2026-04-28 14:23 | 45.05609 | 10.00111 | 32664 ft | 412 kts | 297° |
| 2026-04-28 14:23 | 45.06931 | 9.96666 | 32983 ft | 411 kts | 297° |
| 2026-04-28 14:23 | 45.08289 | 9.93108 | 33301 ft | 410 kts | 297° |
| 2026-04-28 14:23 | 45.09644 | 9.89564 | 33667 ft | 408 kts | 297° |
| 2026-04-28 14:24 | 45.11001 | 9.86029 | 34034 ft | 405 kts | 297° |
| 2026-04-28 14:24 | 45.12350 | 9.82522 | 34309 ft | 404 kts | 297° |
| 2026-04-28 14:24 | 45.13683 | 9.79063 | 34523 ft | 405 kts | 297° |
| 2026-04-28 14:24 | 45.15034 | 9.75559 | 34727 ft | 405 kts | 297° |
| 2026-04-28 14:25 | 45.16384 | 9.72057 | 34983 ft | 404 kts | 297° |
| 2026-04-28 14:25 | 45.17730 | 9.68565 | 35313 ft | 402 kts | 297° |
| 2026-04-28 14:25 | 45.19069 | 9.65085 | 35554 ft | 401 kts | 297° |
| 2026-04-28 14:25 | 45.20412 | 9.61591 | 35686 ft | 403 kts | 297° |
| 2026-04-28 14:26 | 45.21752 | 9.58100 | 35867 ft | 403 kts | 297° |
| 2026-04-28 14:26 | 45.23092 | 9.54602 | 36048 ft | 404 kts | 297° |
| 2026-04-28 14:26 | 45.25770 | 9.47603 | 36050 ft | 407 kts | 297° |
| 2026-04-28 14:27 | 45.28456 | 9.40566 | 36050 ft | 402 kts | 297° |
| 2026-04-28 14:27 | 45.31106 | 9.33603 | 36022 ft | 399 kts | 297° |
| 2026-04-28 14:28 | 45.33739 | 9.26668 | 36017 ft | 398 kts | 296° |
| 2026-04-28 14:28 | 45.36360 | 9.19748 | 36023 ft | 397 kts | 296° |
| 2026-04-28 14:29 | 45.38977 | 9.12818 | 36025 ft | 398 kts | 296° |
| 2026-04-28 14:29 | 45.41597 | 9.05865 | 36045 ft | 399 kts | 296° |
| 2026-04-28 14:30 | 45.44176 | 8.99002 | 36041 ft | 401 kts | 296° |
| 2026-04-28 14:30 | 45.46797 | 8.92013 | 36053 ft | 402 kts | 296° |
| 2026-04-28 14:31 | 45.49437 | 8.84952 | 36050 ft | 404 kts | 296° |
| 2026-04-28 14:31 | 45.52076 | 8.77878 | 36050 ft | 404 kts | 296° |
| 2026-04-28 14:32 | 45.54702 | 8.70818 | 36052 ft | 405 kts | 296° |
| 2026-04-28 14:32 | 45.57342 | 8.63702 | 36049 ft | 405 kts | 296° |
| 2026-04-28 14:33 | 45.59977 | 8.56584 | 36047 ft | 405 kts | 295° |
| 2026-04-28 14:33 | 45.62601 | 8.49476 | 36054 ft | 404 kts | 295° |
| 2026-04-28 14:34 | 45.66503 | 8.38868 | 36084 ft | 403 kts | 295° |
| 2026-04-28 14:35 | 45.69108 | 8.31766 | 36077 ft | 403 kts | 295° |
| 2026-04-28 14:35 | 45.71700 | 8.24677 | 36072 ft | 401 kts | 295° |
| 2026-04-28 14:36 | 45.74283 | 8.17596 | 36056 ft | 400 kts | 295° |
| 2026-04-28 14:36 | 45.76845 | 8.10553 | 36096 ft | 399 kts | 295° |
| 2026-04-28 14:37 | 45.79408 | 8.03490 | 36095 ft | 400 kts | 295° |
| 2026-04-28 14:37 | 45.81937 | 7.96503 | 36082 ft | 401 kts | 295° |
| 2026-04-28 14:38 | 45.84506 | 7.89387 | 36083 ft | 402 kts | 295° |
| 2026-04-28 14:38 | 45.87074 | 7.82254 | 36083 ft | 403 kts | 295° |
| 2026-04-28 14:39 | 45.89644 | 7.75096 | 36097 ft | 404 kts | 294° |
| 2026-04-28 14:39 | 45.92215 | 7.67916 | 36082 ft | 405 kts | 294° |
| 2026-04-28 14:40 | 45.94779 | 7.60741 | 36071 ft | 406 kts | 294° |
| 2026-04-28 14:40 | 45.97463 | 7.53615 | 36059 ft | 408 kts | 301° |
| 2026-04-28 14:41 | 46.00985 | 7.47192 | 36036 ft | 409 kts | 305° |
| 2026-04-28 14:41 | 46.04568 | 7.40814 | 36050 ft | 409 kts | 305° |
| 2026-04-28 14:42 | 46.08120 | 7.34424 | 36036 ft | 407 kts | 305° |
| 2026-04-28 14:42 | 46.11624 | 7.28077 | 36015 ft | 407 kts | 305° |
| 2026-04-28 14:43 | 46.15138 | 7.21689 | 36042 ft | 406 kts | 304° |
| 2026-04-28 14:43 | 46.18642 | 7.15302 | 36035 ft | 405 kts | 304° |
| 2026-04-28 14:44 | 46.22136 | 7.08921 | 36032 ft | 404 kts | 304° |
| 2026-04-28 14:44 | 46.25615 | 7.02548 | 36048 ft | 404 kts | 304° |
| 2026-04-28 14:45 | 46.29024 | 6.96294 | 36044 ft | 404 kts | 304° |
| 2026-04-28 14:45 | 46.32504 | 6.89895 | 36048 ft | 404 kts | 304° |
| 2026-04-28 14:46 | 46.35957 | 6.83523 | 36043 ft | 400 kts | 304° |
| 2026-04-28 14:46 | 46.39391 | 6.77183 | 36058 ft | 402 kts | 303° |
| 2026-04-28 14:47 | 46.42846 | 6.70789 | 36064 ft | 403 kts | 303° |
| 2026-04-28 14:47 | 46.46029 | 6.64123 | 36067 ft | 401 kts | 296° |
| 2026-04-28 14:48 | 46.48781 | 6.57076 | 36059 ft | 402 kts | 295° |
| 2026-04-28 14:48 | 46.51506 | 6.50038 | 36058 ft | 403 kts | 296° |
| 2026-04-28 14:49 | 46.54281 | 6.42948 | 36060 ft | 404 kts | 296° |
| 2026-04-28 14:49 | 46.57076 | 6.35835 | 36060 ft | 405 kts | 296° |
| 2026-04-28 14:50 | 46.59875 | 6.28705 | 36049 ft | 406 kts | 296° |
| 2026-04-28 14:50 | 46.62673 | 6.21558 | 36040 ft | 406 kts | 296° |
| 2026-04-28 14:51 | 46.65464 | 6.14412 | 36038 ft | 406 kts | 295° |
| 2026-04-28 14:51 | 46.68247 | 6.07263 | 36043 ft | 405 kts | 295° |
| 2026-04-28 14:52 | 46.71001 | 6.00171 | 36033 ft | 404 kts | 295° |
| 2026-04-28 14:52 | 46.73714 | 5.93167 | 36031 ft | 404 kts | 295° |
| 2026-04-28 14:53 | 46.76473 | 5.86026 | 36028 ft | 403 kts | 295° |
| 2026-04-28 14:53 | 46.79222 | 5.78895 | 36033 ft | 403 kts | 295° |
| 2026-04-28 14:53 | 46.80800 | 5.75492 | 36026 ft | 408 kts | 306° |
| 2026-04-28 14:54 | 46.82777 | 5.72495 | 36048 ft | 412 kts | 312° |
| 2026-04-28 14:54 | 46.87544 | 5.67733 | 36047 ft | 423 kts | 325° |
| 2026-04-28 14:55 | 46.92751 | 5.63637 | 36032 ft | 425 kts | 326° |
| 2026-04-28 14:55 | 46.97970 | 5.59523 | 36029 ft | 426 kts | 325° |
| 2026-04-28 14:56 | 47.02291 | 5.56061 | 36032 ft | 427 kts | 325° |
| 2026-04-28 14:56 | 47.07518 | 5.51836 | 35829 ft | 432 kts | 324° |
| 2026-04-28 14:56 | 47.10154 | 5.49699 | 35579 ft | 432 kts | 324° |
| 2026-04-28 14:57 | 47.12784 | 5.47567 | 35323 ft | 429 kts | 324° |
| 2026-04-28 14:57 | 47.15393 | 5.45453 | 35076 ft | 426 kts | 324° |
| 2026-04-28 14:57 | 47.17984 | 5.43348 | 34832 ft | 426 kts | 324° |
| 2026-04-28 14:57 | 47.20577 | 5.41237 | 34595 ft | 425 kts | 324° |
| 2026-04-28 14:58 | 47.23127 | 5.39159 | 34042 ft | 425 kts | 323° |
| 2026-04-28 14:58 | 47.25708 | 5.37054 | 33482 ft | 424 kts | 323° |
| 2026-04-28 14:58 | 47.28297 | 5.34940 | 32834 ft | 425 kts | 323° |
| 2026-04-28 14:58 | 47.30880 | 5.32832 | 32247 ft | 424 kts | 323° |
| 2026-04-28 14:59 | 47.33463 | 5.30730 | 31629 ft | 423 kts | 323° |
| 2026-04-28 14:59 | 47.36033 | 5.28639 | 31192 ft | 421 kts | 323° |
| 2026-04-28 14:59 | 47.38620 | 5.26528 | 30752 ft | 427 kts | 323° |
| 2026-04-28 14:59 | 47.41215 | 5.24407 | 30298 ft | 425 kts | 324° |
| 2026-04-28 15:00 | 47.43803 | 5.22296 | 29802 ft | 422 kts | 324° |
| 2026-04-28 15:00 | 47.46357 | 5.20208 | 29341 ft | 417 kts | 324° |
| 2026-04-28 15:00 | 47.48882 | 5.18142 | 28907 ft | 412 kts | 323° |
| 2026-04-28 15:00 | 47.51383 | 5.16089 | 28440 ft | 408 kts | 323° |
| 2026-04-28 15:01 | 47.53818 | 5.14089 | 28007 ft | 404 kts | 323° |
| 2026-04-28 15:01 | 47.56281 | 5.12061 | 27586 ft | 407 kts | 324° |
| 2026-04-28 15:01 | 47.58768 | 5.09993 | 27132 ft | 410 kts | 322° |
| 2026-04-28 15:01 | 47.61051 | 5.07563 | 26686 ft | 399 kts | 313° |
| 2026-04-28 15:02 | 47.63123 | 5.04882 | 26247 ft | 393 kts | 311° |
| 2026-04-28 15:02 | 47.65157 | 5.02189 | 25819 ft | 390 kts | 311° |
| 2026-04-28 15:02 | 47.67131 | 4.99608 | 25403 ft | 388 kts | 312° |
| 2026-04-28 15:02 | 47.69169 | 4.96994 | 24974 ft | 385 kts | 313° |
| 2026-04-28 15:03 | 47.71201 | 4.94424 | 24554 ft | 383 kts | 313° |
| 2026-04-28 15:03 | 47.73227 | 4.91869 | 24130 ft | 381 kts | 313° |
| 2026-04-28 15:03 | 47.75241 | 4.89330 | 23701 ft | 380 kts | 314° |
| 2026-04-28 15:03 | 47.77236 | 4.86815 | 23240 ft | 379 kts | 314° |
| 2026-04-28 15:04 | 47.79243 | 4.84281 | 22795 ft | 378 kts | 314° |
| 2026-04-28 15:04 | 47.81241 | 4.81756 | 22350 ft | 375 kts | 314° |
| 2026-04-28 15:04 | 47.83224 | 4.79248 | 21946 ft | 372 kts | 315° |
| 2026-04-28 15:04 | 47.85198 | 4.76748 | 21535 ft | 373 kts | 315° |
| 2026-04-28 15:05 | 47.87178 | 4.74234 | 21131 ft | 375 kts | 315° |
| 2026-04-28 15:05 | 47.89167 | 4.71707 | 20716 ft | 375 kts | 316° |
| 2026-04-28 15:05 | 47.91152 | 4.69184 | 20311 ft | 374 kts | 316° |
| 2026-04-28 15:05 | 47.93132 | 4.66665 | 19903 ft | 373 kts | 317° |
| 2026-04-28 15:06 | 47.95104 | 4.64154 | 19507 ft | 373 kts | 317° |
| 2026-04-28 15:06 | 47.97074 | 4.61642 | 19106 ft | 372 kts | 317° |
| 2026-04-28 15:06 | 47.99019 | 4.59160 | 18714 ft | 372 kts | 317° |
| 2026-04-28 15:06 | 48.00980 | 4.56655 | 18307 ft | 372 kts | 317° |
| 2026-04-28 15:07 | 48.02945 | 4.54142 | 17850 ft | 372 kts | 317° |
| 2026-04-28 15:07 | 48.04908 | 4.51629 | 17408 ft | 370 kts | 317° |
| 2026-04-28 15:07 | 48.06857 | 4.49131 | 16996 ft | 369 kts | 317° |
| 2026-04-28 15:07 | 48.08808 | 4.46629 | 16593 ft | 367 kts | 317° |
| 2026-04-28 15:08 | 48.10738 | 4.44152 | 16187 ft | 364 kts | 317° |
| 2026-04-28 15:08 | 48.12649 | 4.41696 | 15793 ft | 360 kts | 317° |
| 2026-04-28 15:08 | 48.14650 | 4.39458 | 15409 ft | 358 kts | 327° |
| 2026-04-28 15:08 | 48.16826 | 4.37665 | 15029 ft | 356 kts | 332° |
| 2026-04-28 15:09 | 48.19030 | 4.36010 | 14650 ft | 353 kts | 332° |
| 2026-04-28 15:09 | 48.21194 | 4.34389 | 14270 ft | 351 kts | 332° |
| 2026-04-28 15:09 | 48.23360 | 4.32730 | 13896 ft | 348 kts | 331° |
| 2026-04-28 15:09 | 48.24809 | 4.31600 | 13624 ft | 347 kts | 331° |
| 2026-04-28 15:10 | 48.27628 | 4.29370 | 13075 ft | 344 kts | 330° |
| 2026-04-28 15:10 | 48.29728 | 4.27692 | 12706 ft | 341 kts | 331° |
| 2026-04-28 15:10 | 48.31814 | 4.26022 | 12324 ft | 339 kts | 331° |
| 2026-04-28 15:10 | 48.33891 | 4.24357 | 11965 ft | 336 kts | 331° |
| 2026-04-28 15:11 | 48.35932 | 4.22698 | 11704 ft | 330 kts | 330° |
| 2026-04-28 15:11 | 48.37933 | 4.21057 | 11433 ft | 325 kts | 330° |
| 2026-04-28 15:11 | 48.39907 | 4.19434 | 11183 ft | 320 kts | 330° |
| 2026-04-28 15:11 | 48.41848 | 4.17837 | 10936 ft | 316 kts | 330° |
| 2026-04-28 15:12 | 48.43762 | 4.16261 | 10685 ft | 312 kts | 330° |
| 2026-04-28 15:12 | 48.45665 | 4.14694 | 10439 ft | 308 kts | 331° |
| 2026-04-28 15:12 | 48.47515 | 4.13171 | 10192 ft | 305 kts | 331° |
| 2026-04-28 15:12 | 48.49371 | 4.11641 | 9958 ft | 304 kts | 331° |
| 2026-04-28 15:13 | 48.51226 | 4.10112 | 9684 ft | 302 kts | 331° |
| 2026-04-28 15:13 | 48.53065 | 4.08594 | 9455 ft | 301 kts | 331° |
| 2026-04-28 15:13 | 48.54899 | 4.07080 | 9209 ft | 299 kts | 331° |
| 2026-04-28 15:13 | 48.56713 | 4.05579 | 8971 ft | 297 kts | 331° |
| 2026-04-28 15:14 | 48.58517 | 4.04086 | 8723 ft | 295 kts | 332° |
| 2026-04-28 15:14 | 48.60288 | 4.02616 | 8491 ft | 292 kts | 332° |
| 2026-04-28 15:14 | 48.62067 | 4.01138 | 8266 ft | 290 kts | 332° |
| 2026-04-28 15:14 | 48.63778 | 3.99718 | 8044 ft | 288 kts | 333° |
| 2026-04-28 15:15 | 48.65529 | 3.98261 | 7816 ft | 287 kts | 332° |
| 2026-04-28 15:15 | 48.67270 | 3.96817 | 7597 ft | 285 kts | 333° |
| 2026-04-28 15:15 | 48.69006 | 3.95371 | 7364 ft | 284 kts | 332° |
| 2026-04-28 15:15 | 48.70731 | 3.93935 | 7142 ft | 282 kts | 333° |
| 2026-04-28 15:16 | 48.72449 | 3.92525 | 7023 ft | 277 kts | 333° |
| 2026-04-28 15:16 | 48.74126 | 3.91119 | 6989 ft | 274 kts | 333° |
| 2026-04-28 15:16 | 48.75810 | 3.89704 | 6956 ft | 280 kts | 333° |
| 2026-04-28 15:16 | 48.77529 | 3.88268 | 6907 ft | 283 kts | 333° |
| 2026-04-28 15:17 | 48.79234 | 3.86854 | 6865 ft | 282 kts | 334° |
| 2026-04-28 15:17 | 48.81011 | 3.85600 | 6823 ft | 280 kts | 338° |
| 2026-04-28 15:17 | 48.82822 | 3.84426 | 6770 ft | 279 kts | 340° |
| 2026-04-28 15:17 | 48.84579 | 3.83299 | 6742 ft | 278 kts | 339° |
| 2026-04-28 15:18 | 48.86362 | 3.82141 | 6698 ft | 277 kts | 339° |
| 2026-04-28 15:18 | 48.88138 | 3.80988 | 6657 ft | 277 kts | 339° |
| 2026-04-28 15:18 | 48.89912 | 3.79831 | 6618 ft | 276 kts | 339° |
| 2026-04-28 15:18 | 48.91678 | 3.78672 | 6575 ft | 277 kts | 338° |
| 2026-04-28 15:19 | 48.93447 | 3.77509 | 6524 ft | 277 kts | 339° |
| 2026-04-28 15:19 | 48.95215 | 3.76343 | 6493 ft | 276 kts | 339° |
| 2026-04-28 15:19 | 48.96974 | 3.75182 | 6465 ft | 276 kts | 339° |
| 2026-04-28 15:19 | 48.98737 | 3.74016 | 6403 ft | 276 kts | 339° |
| 2026-04-28 15:20 | 49.00476 | 3.72865 | 6375 ft | 276 kts | 339° |
| 2026-04-28 15:20 | 49.02241 | 3.71693 | 6336 ft | 277 kts | 339° |
| 2026-04-28 15:20 | 49.04012 | 3.70515 | 6288 ft | 278 kts | 339° |
| 2026-04-28 15:20 | 49.05786 | 3.69339 | 6252 ft | 279 kts | 339° |
| 2026-04-28 15:21 | 49.07568 | 3.68158 | 6219 ft | 279 kts | 339° |
| 2026-04-28 15:21 | 49.09363 | 3.66964 | 6161 ft | 281 kts | 338° |
| 2026-04-28 15:21 | 49.11157 | 3.65770 | 6133 ft | 282 kts | 339° |
| 2026-04-28 15:21 | 49.12959 | 3.64570 | 6093 ft | 283 kts | 340° |
| 2026-04-28 15:22 | 49.14761 | 3.63372 | 6033 ft | 282 kts | 339° |
| 2026-04-28 15:22 | 49.16560 | 3.62171 | 5997 ft | 281 kts | 339° |
| 2026-04-28 15:22 | 49.18344 | 3.60981 | 5961 ft | 279 kts | 339° |
| 2026-04-28 15:22 | 49.20094 | 3.59808 | 5919 ft | 277 kts | 339° |
| 2026-04-28 15:23 | 49.21857 | 3.58629 | 5894 ft | 276 kts | 339° |
| 2026-04-28 15:23 | 49.23614 | 3.57454 | 5846 ft | 276 kts | 339° |
| 2026-04-28 15:23 | 49.25375 | 3.56277 | 5793 ft | 276 kts | 340° |
| 2026-04-28 15:23 | 49.27148 | 3.55090 | 5758 ft | 279 kts | 340° |
| 2026-04-28 15:24 | 49.28923 | 3.53901 | 5740 ft | 277 kts | 340° |
| 2026-04-28 15:24 | 49.30681 | 3.52719 | 5681 ft | 275 kts | 340° |
| 2026-04-28 15:24 | 49.32426 | 3.51547 | 5651 ft | 272 kts | 340° |
| 2026-04-28 15:24 | 49.34168 | 3.50377 | 5608 ft | 274 kts | 340° |
| 2026-04-28 15:25 | 49.35913 | 3.49203 | 5529 ft | 276 kts | 340° |
| 2026-04-28 15:25 | 49.37657 | 3.48028 | 5509 ft | 275 kts | 340° |
| 2026-04-28 15:25 | 49.39401 | 3.46788 | 5396 ft | 279 kts | 332° |
| 2026-04-28 15:25 | 49.40766 | 3.44658 | 5346 ft | 285 kts | 300° |
| 2026-04-28 15:26 | 49.41251 | 3.41716 | 5308 ft | 287 kts | 270° |
| 2026-04-28 15:26 | 49.40948 | 3.38700 | 5311 ft | 286 kts | 256° |
| 2026-04-28 15:26 | 49.40434 | 3.35726 | 5234 ft | 289 kts | 254° |
| 2026-04-28 15:26 | 49.39892 | 3.32770 | 5194 ft | 287 kts | 254° |
| 2026-04-28 15:27 | 49.39356 | 3.29821 | 5153 ft | 286 kts | 255° |
| 2026-04-28 15:27 | 49.38831 | 3.26876 | 5111 ft | 287 kts | 255° |
| 2026-04-28 15:27 | 49.38309 | 3.23922 | 5057 ft | 286 kts | 255° |
| 2026-04-28 15:27 | 49.37801 | 3.21004 | 5044 ft | 287 kts | 255° |
| 2026-04-28 15:28 | 49.37285 | 3.18038 | 4973 ft | 288 kts | 255° |
| 2026-04-28 15:28 | 49.36773 | 3.15070 | 4952 ft | 287 kts | 255° |
| 2026-04-28 15:28 | 49.36260 | 3.12110 | 4906 ft | 287 kts | 255° |
| 2026-04-28 15:28 | 49.35826 | 3.09120 | 4840 ft | 287 kts | 268° |
| 2026-04-28 15:29 | 49.36165 | 3.06154 | 4820 ft | 281 kts | 295° |
| 2026-04-28 15:29 | 49.36996 | 3.03457 | 4803 ft | 280 kts | 300° |
| 2026-04-28 15:29 | 49.37899 | 3.00811 | 4752 ft | 281 kts | 301° |
| 2026-04-28 15:29 | 49.38791 | 2.98232 | 4709 ft | 282 kts | 300° |
| 2026-04-28 15:30 | 49.39713 | 2.95561 | 4676 ft | 283 kts | 301° |
| 2026-04-28 15:30 | 49.40617 | 2.92918 | 4632 ft | 284 kts | 301° |
| 2026-04-28 15:30 | 49.41529 | 2.90229 | 4602 ft | 283 kts | 300° |
| 2026-04-28 15:30 | 49.42438 | 2.87538 | 4555 ft | 283 kts | 300° |
| 2026-04-28 15:31 | 49.43340 | 2.84854 | 4531 ft | 283 kts | 300° |
| 2026-04-28 15:31 | 49.44244 | 2.82157 | 4473 ft | 283 kts | 300° |
| 2026-04-28 15:31 | 49.45143 | 2.79467 | 4421 ft | 283 kts | 300° |
| 2026-04-28 15:31 | 49.46038 | 2.76780 | 4369 ft | 280 kts | 300° |
| 2026-04-28 15:32 | 49.46923 | 2.74126 | 4337 ft | 277 kts | 300° |
| 2026-04-28 15:32 | 49.47502 | 2.72390 | 4330 ft | 275 kts | 301° |
| 2026-04-28 15:32 | 49.48663 | 2.68893 | 4266 ft | 273 kts | 300° |
| 2026-04-28 15:32 | 49.49529 | 2.66288 | 4226 ft | 275 kts | 301° |
| 2026-04-28 15:33 | 49.50412 | 2.63633 | 4202 ft | 281 kts | 300° |
| 2026-04-28 15:33 | 49.51292 | 2.60979 | 4152 ft | 274 kts | 300° |
| 2026-04-28 15:33 | 49.52142 | 2.58405 | 4088 ft | 265 kts | 300° |
| 2026-04-28 15:33 | 49.52959 | 2.55930 | 4058 ft | 254 kts | 300° |
| 2026-04-28 15:34 | 49.53748 | 2.53542 | 4025 ft | 248 kts | 301° |
| 2026-04-28 15:34 | 49.54522 | 2.51196 | 3969 ft | 243 kts | 301° |
| 2026-04-28 15:34 | 49.55247 | 2.48901 | 3949 ft | 242 kts | 293° |
| 2026-04-28 15:34 | 49.55578 | 2.46338 | 3946 ft | 247 kts | 278° |
| 2026-04-28 15:35 | 49.55754 | 2.43660 | 3926 ft | 254 kts | 277° |
| 2026-04-28 15:35 | 49.56116 | 2.38217 | 3847 ft | 256 kts | 279° |
| 2026-04-28 15:35 | 49.56305 | 2.35504 | 3808 ft | 253 kts | 278° |
| 2026-04-28 15:36 | 49.56494 | 2.32822 | 3763 ft | 250 kts | 279° |
| 2026-04-28 15:36 | 49.56684 | 2.30180 | 3717 ft | 247 kts | 279° |
| 2026-04-28 15:36 | 49.56875 | 2.27545 | 3654 ft | 249 kts | 279° |
| 2026-04-28 15:36 | 49.57072 | 2.24855 | 3470 ft | 252 kts | 279° |
| 2026-04-28 15:37 | 49.57267 | 2.22175 | 3278 ft | 252 kts | 279° |
| 2026-04-28 15:37 | 49.57462 | 2.19508 | 3096 ft | 250 kts | 280° |
| 2026-04-28 15:37 | 49.57653 | 2.16887 | 3008 ft | 248 kts | 279° |
| 2026-04-28 15:37 | 49.57782 | 2.15114 | 2989 ft | 244 kts | 280° |
| 2026-04-28 15:38 | 49.58029 | 2.11692 | 2972 ft | 242 kts | 280° |
| 2026-04-28 15:38 | 49.58215 | 2.09114 | 2980 ft | 242 kts | 280° |
| 2026-04-28 15:38 | 49.58404 | 2.06523 | 2968 ft | 244 kts | 280° |
| 2026-04-28 15:38 | 49.58596 | 2.03893 | 2990 ft | 250 kts | 281° |
| 2026-04-28 15:39 | 49.58789 | 2.01218 | 2958 ft | 251 kts | 280° |
| 2026-04-28 15:39 | 49.58973 | 1.98639 | 2968 ft | 248 kts | 280° |
| 2026-04-28 15:39 | 49.59153 | 1.96069 | 2983 ft | 232 kts | 280° |
| 2026-04-28 15:39 | 49.59319 | 1.93678 | 2989 ft | 217 kts | 281° |
| 2026-04-28 15:40 | 49.59475 | 1.91438 | 2958 ft | 203 kts | 282° |
| 2026-04-28 15:40 | 49.59477 | 1.89262 | 2959 ft | 207 kts | 255° |
| 2026-04-28 15:40 | 49.58639 | 1.87560 | 3002 ft | 206 kts | 207° |
| 2026-04-28 15:40 | 49.57292 | 1.86932 | 2987 ft | 200 kts | 173° |
| 2026-04-28 15:41 | 49.56078 | 1.87646 | 2961 ft | 180 kts | 126° |
| 2026-04-28 15:41 | 49.55297 | 1.89107 | 2982 ft | 179 kts | 123° |
| 2026-04-28 15:41 | 49.54498 | 1.90591 | 2988 ft | 180 kts | 121° |
| 2026-04-28 15:41 | 49.53759 | 1.92165 | 2987 ft | 182 kts | 118° |
| 2026-04-28 15:42 | 49.53053 | 1.93768 | 2879 ft | 180 kts | 116° |
| 2026-04-28 15:42 | 49.52357 | 1.95360 | 2671 ft | 178 kts | 116° |
| 2026-04-28 15:42 | 49.51670 | 1.96935 | 2421 ft | 175 kts | 116° |
| 2026-04-28 15:42 | 49.51004 | 1.98463 | 2189 ft | 168 kts | 116° |
| 2026-04-28 15:43 | 49.50583 | 1.99435 | 2045 ft | 161 kts | 117° |
| 2026-04-28 15:43 | 49.49983 | 2.00810 | 1873 ft | 156 kts | 115° |
| 2026-04-28 15:43 | 49.49387 | 2.02188 | 1640 ft | 152 kts | 115° |
| 2026-04-28 15:43 | 49.48810 | 2.03519 | 1427 ft | 149 kts | 117° |
| 2026-04-28 15:44 | 49.48220 | 2.04869 | 1231 ft | 154 kts | 117° |
| 2026-04-28 15:44 | 49.47617 | 2.06259 | 1021 ft | 161 kts | 118° |
| 2026-04-28 15:44 | 49.46976 | 2.07715 | 817 ft | 165 kts | 115° |
| 2026-04-28 15:44 | 49.46378 | 2.09201 | 585 ft | 161 kts | 112° |
| 2026-04-28 15:45 | 49.45741 | 2.10597 | 380 ft | 159 kts | 117° |
| 2026-04-28 15:45 | 49.45180 | 2.11892 | 336 ft | 120 kts | 124° |
| 2026-04-28 15:45 | 49.44834 | 2.12685 | 318 ft | 59 kts | 123° |
| 2026-04-28 15:45 | 49.44706 | 2.12975 | 312 ft | 19 kts | 124° |
| 2026-04-28 15:46 | 49.44675 | 2.13107 | 310 ft | 10 kts | 91° |
| 2026-04-28 15:46 | 49.44663 | 2.13175 | 308 ft | 6 kts | 155° |
| 2026-04-28 15:46 | 49.44628 | 2.13145 | 309 ft | 6 kts | 256° |
| 2026-04-28 15:46 | 49.44651 | 2.13086 | 310 ft | 8 kts | 306° |
| 2026-04-28 15:47 | 49.44712 | 2.12957 | 312 ft | 22 kts | 306° |
| 2026-04-28 15:47 | 49.44819 | 2.12709 | 317 ft | 34 kts | 303° |
| 2026-04-28 15:47 | 49.44966 | 2.12365 | 323 ft | 42 kts | 303° |
| 2026-04-28 15:47 | 49.45122 | 2.12009 | 331 ft | 38 kts | 304° |
| 2026-04-28 15:48 | 49.45265 | 2.11683 | 332 ft | 35 kts | 303° |
| 2026-04-28 15:48 | 49.45397 | 2.11385 | 337 ft | 32 kts | 304° |
| 2026-04-28 15:48 | 49.45513 | 2.11119 | 349 ft | 29 kts | 303° |
| 2026-04-28 15:48 | 49.45597 | 2.10926 | 353 ft | 11 kts | 304° |
| 2026-04-28 15:49 | 49.45656 | 2.10883 | 350 ft | 11 kts | 14° |
| 2026-04-28 15:49 | 49.45721 | 2.10931 | 354 ft | 10 kts | 27° |
| 2026-04-28 15:49 | 49.45779 | 2.10984 | 348 ft | 9 kts | 45° |
| 2026-04-28 15:49 | 49.45774 | 2.11072 | 349 ft | 9 kts | 121° |
| 2026-04-28 15:50 | 49.45771 | 2.11138 | 348 ft | 6 kts | 46° |
| 2026-04-28 15:50 | 49.45803 | 2.11169 | 350 ft | 3 kts | 33° |
| 2026-04-28 15:50 | 49.45804 | 2.11171 | 350 ft | 0 kts | 33° |